Time;durP1;ratioP1;P1;durP2;ratioP2;P2;SDS_P1;SDS_P2;PMS_P1;PMS_P2;Temp;Humidity;BMP_temperature;BMP_pressure;BME280_temperature;BME280_humidity;BME280_pressure;Samples;Min_cycle;Max_cycle;Signal;HPM_P1;HPM_P2
2023/07/12 00:00:51;;;;;;;4.63;3.60;;;;;;;;;;5028197;28;20556;-72
2023/07/12 00:03:18;;;;;;;9.02;3.42;;;;;;;;;;5024801;28;20198;-72
2023/07/12 00:05:44;;;;;;;4.32;3.13;;;;;;;;;;5023733;28;20220;-72
2023/07/12 00:08:18;;;;;;;5.95;3.10;;;;;;;;;;5026725;28;20194;-71
2023/07/12 00:10:44;;;;;;;5.43;3.42;;;;;;;;;;5024616;28;20186;-72
2023/07/12 00:13:10;;;;;;;3.70;3.17;;;;;;;;;;5024423;28;20197;-72
2023/07/12 00:15:36;;;;;;;4.78;2.10;;;;;;;;;;5028099;28;20201;-71
2023/07/12 00:18:01;;;;;;;6.78;3.60;;;;;;;;;;5020873;28;20518;-71
2023/07/12 00:20:34;;;;;;;5.95;3.50;;;;;;;;;;5025724;28;20713;-71
2023/07/12 00:22:59;;;;;;;8.43;3.90;;;;;;;;;;5024200;28;20205;-70
2023/07/12 00:25:29;;;;;;;6.53;4.30;;;;;;;;;;5022479;28;20190;-71
2023/07/12 00:27:54;;;;;;;5.47;4.25;;;;;;;;;;5021987;28;20645;-71
2023/07/12 00:30:28;;;;;;;4.63;3.75;;;;;;;;;;5027921;28;20193;-71
2023/07/12 00:32:55;;;;;;;6.72;3.58;;;;;;;;;;5023514;28;20276;-70
2023/07/12 00:35:25;;;;;;;8.07;3.40;;;;;;;;;;5018180;28;20244;-71
2023/07/12 00:37:52;;;;;;;5.47;3.50;;;;;;;;;;5022207;28;20638;-70
2023/07/12 00:40:23;;;;;;;5.35;3.78;;;;;;;;;;5025951;28;20264;-71
2023/07/12 00:42:55;;;;;;;6.82;3.67;;;;;;;;;;5024841;28;20202;-70
2023/07/12 00:45:22;;;;;;;5.00;3.35;;;;;;;;;;5027601;28;20189;-70
2023/07/12 00:47:49;;;;;;;4.85;3.28;;;;;;;;;;5022813;28;20197;-69
2023/07/12 00:50:18;;;;;;;5.57;3.40;;;;;;;;;;5022759;28;20190;-70
2023/07/12 00:52:44;;;;;;;4.38;2.88;;;;;;;;;;5023732;28;20198;-70
2023/07/12 00:55:47;;;;;;;3.10;2.80;;;;;;;;;;5025614;28;20190;-70
2023/07/12 00:58:12;;;;;;;3.25;2.90;;;;;;;;;;5020701;28;20182;-71
2023/07/12 01:00:37;;;;;;;4.93;3.40;;;;;;;;;;5025547;28;20216;-71
2023/07/12 01:03:04;;;;;;;3.70;3.22;;;;;;;;;;5024821;28;20240;-71
2023/07/12 01:05:30;;;;;;;3.38;3.08;;;;;;;;;;5015966;28;20190;-71
2023/07/12 01:07:55;;;;;;;3.50;2.83;;;;;;;;;;5022215;28;20597;-70
2023/07/12 01:10:21;;;;;;;3.25;2.90;;;;;;;;;;5026874;28;20196;-70
2023/07/12 01:12:46;;;;;;;5.18;3.17;;;;;;;;;;5027614;28;20636;-70
2023/07/12 01:15:12;;;;;;;5.85;3.10;;;;;;;;;;5022943;28;20633;-70
2023/07/12 01:17:40;;;;;;;4.43;2.90;;;;;;;;;;5030646;28;20190;-70
2023/07/12 01:20:07;;;;;;;5.00;2.72;;;;;;;;;;5024474;28;20198;-70
2023/07/12 01:22:32;;;;;;;3.92;3.03;;;;;;;;;;5029594;28;20304;-69
2023/07/12 01:24:57;;;;;;;3.97;3.13;;;;;;;;;;5019272;28;20558;-69
2023/07/12 01:27:25;;;;;;;4.68;3.20;;;;;;;;;;5029935;28;20217;-69
2023/07/12 01:29:51;;;;;;;4.15;2.85;;;;;;;;;;5030754;28;20186;-69
2023/07/12 01:32:17;;;;;;;5.10;3.45;;;;;;;;;;5028596;28;20190;-71
2023/07/12 01:34:43;;;;;;;5.57;2.65;;;;;;;;;;5027636;28;20197;-69
2023/07/12 01:37:08;;;;;;;5.43;2.97;;;;;;;;;;5019673;28;20203;-69
2023/07/12 01:39:33;;;;;;;6.65;2.85;;;;;;;;;;5030036;28;20194;-67
2023/07/12 01:41:59;;;;;;;4.75;3.28;;;;;;;;;;5028935;28;20701;-70
2023/07/12 01:44:25;;;;;;;4.53;3.38;;;;;;;;;;5028987;28;20217;-70
2023/07/12 01:46:50;;;;;;;5.55;3.40;;;;;;;;;;5025060;28;20198;-69
2023/07/12 01:49:15;;;;;;;7.40;3.28;;;;;;;;;;5029948;28;20194;-69
2023/07/12 01:51:41;;;;;;;3.72;2.97;;;;;;;;;;5027952;28;20197;-69
2023/07/12 01:54:06;;;;;;;5.18;3.42;;;;;;;;;;5020895;28;20220;-68
2023/07/12 01:56:31;;;;;;;3.92;2.60;;;;;;;;;;5030433;28;20708;-68
2023/07/12 01:58:57;;;;;;;6.03;2.92;;;;;;;;;;5022472;28;20190;-69
2023/07/12 02:01:22;;;;;;;5.22;3.10;;;;;;;;;;5030014;28;20198;-70
2023/07/12 02:03:48;;;;;;;9.15;3.03;;;;;;;;;;5023762;28;20289;-68
2023/07/12 02:06:13;;;;;;;4.65;3.05;;;;;;;;;;5028239;28;20662;-70
2023/07/12 02:08:38;;;;;;;6.28;3.30;;;;;;;;;;5023687;28;20579;-68
2023/07/12 02:11:04;;;;;;;5.05;3.22;;;;;;;;;;5027321;28;20228;-67
2023/07/12 02:13:29;;;;;;;5.43;3.38;;;;;;;;;;5022045;28;20191;-69
2023/07/12 02:15:54;;;;;;;5.55;3.53;;;;;;;;;;5029539;28;20201;-68
2023/07/12 02:18:20;;;;;;;7.72;4.00;;;;;;;;;;5029482;28;20255;-70
2023/07/12 02:20:45;;;;;;;7.88;4.03;;;;;;;;;;5026420;28;20661;-70
2023/07/12 02:23:11;;;;;;;5.18;3.30;;;;;;;;;;5025583;28;20198;-67
2023/07/12 02:25:36;;;;;;;6.95;3.20;;;;;;;;;;5028679;28;20547;-69
2023/07/12 02:28:02;;;;;;;5.63;3.17;;;;;;;;;;5030094;28;20606;-68
2023/07/12 02:30:29;;;;;;;6.85;3.10;;;;;;;;;;5031060;28;20193;-69
2023/07/12 02:32:55;;;;;;;6.88;3.92;;;;;;;;;;5029469;28;20562;-69
2023/07/12 02:35:22;;;;;;;5.75;3.33;;;;;;;;;;5021008;28;20193;-68
2023/07/12 02:37:48;;;;;;;8.73;3.45;;;;;;;;;;5022631;28;20261;-67
2023/07/12 02:40:14;;;;;;;11.10;4.00;;;;;;;;;;5030725;28;20310;-68
2023/07/12 02:42:40;;;;;;;5.88;3.45;;;;;;;;;;5019093;28;20206;-68
2023/07/12 02:45:07;;;;;;;6.90;3.65;;;;;;;;;;5023247;28;20202;-68
2023/07/12 02:47:33;;;;;;;13.25;3.60;;;;;;;;;;5029572;28;20194;-67
2023/07/12 02:49:58;;;;;;;5.55;3.47;;;;;;;;;;5023112;28;20339;-68
2023/07/12 02:52:24;;;;;;;7.47;4.10;;;;;;;;;;5029883;28;20281;-68
2023/07/12 02:54:49;;;;;;;7.57;4.20;;;;;;;;;;5022120;28;20203;-68
2023/07/12 02:57:15;;;;;;;8.80;4.07;;;;;;;;;;5023488;28;20529;-69
2023/07/12 02:59:41;;;;;;;8.93;3.70;;;;;;;;;;5029254;28;20186;-67
2023/07/12 03:02:08;;;;;;;7.93;4.13;;;;;;;;;;5028578;28;20206;-69
2023/07/12 03:04:34;;;;;;;7.47;4.35;;;;;;;;;;5026678;28;20194;-68
2023/07/12 03:06:59;;;;;;;7.20;4.80;;;;;;;;;;5029373;28;20190;-68
2023/07/12 03:09:25;;;;;;;7.75;3.65;;;;;;;;;;5028891;28;20248;-70
2023/07/12 03:11:50;;;;;;;9.48;4.93;;;;;;;;;;5027934;28;20194;-69
2023/07/12 03:14:23;;;;;;;9.95;4.38;;;;;;;;;;5022312;28;20198;-67
2023/07/12 03:16:48;;;;;;;8.15;4.63;;;;;;;;;;5020877;28;20206;-67
2023/07/12 03:19:15;;;;;;;7.53;4.22;;;;;;;;;;5026866;28;20199;-68
2023/07/12 03:21:40;;;;;;;11.30;3.97;;;;;;;;;;5027966;28;20228;-69
2023/07/12 03:24:08;;;;;;;8.68;5.00;;;;;;;;;;5019703;28;20219;-69
2023/07/12 03:26:34;;;;;;;6.80;4.35;;;;;;;;;;5029413;28;20647;-68
2023/07/12 03:28:59;;;;;;;14.18;4.47;;;;;;;;;;5023180;28;20194;-71
2023/07/12 03:31:26;;;;;;;11.90;4.53;;;;;;;;;;5027983;28;20188;-72
2023/07/12 03:33:52;;;;;;;11.27;4.32;;;;;;;;;;5022274;28;20205;-68
2023/07/12 03:36:19;;;;;;;15.18;4.95;;;;;;;;;;5029237;28;20191;-72
2023/07/12 03:38:44;;;;;;;11.95;4.72;;;;;;;;;;5020293;28;20190;-72
2023/07/12 03:41:11;;;;;;;10.43;4.20;;;;;;;;;;5029100;28;20279;-72
2023/07/12 03:43:37;;;;;;;7.88;4.57;;;;;;;;;;5025154;28;20292;-71
2023/07/12 03:46:04;;;;;;;11.10;4.45;;;;;;;;;;5026164;28;20657;-71
2023/07/12 03:48:30;;;;;;;10.40;4.03;;;;;;;;;;5025307;28;20653;-71
2023/07/12 03:50:56;;;;;;;9.20;4.70;;;;;;;;;;5016252;28;20264;-69
2023/07/12 03:53:23;;;;;;;7.63;3.95;;;;;;;;;;5026295;28;20186;-70
2023/07/12 03:55:48;;;;;;;9.05;4.30;;;;;;;;;;5028022;28;20194;-70
2023/07/12 03:58:17;;;;;;;10.73;4.28;;;;;;;;;;5028570;28;20193;-70
2023/07/12 04:00:44;;;;;;;10.32;4.03;;;;;;;;;;5016009;28;20237;-70
2023/07/12 04:03:11;;;;;;;11.13;4.00;;;;;;;;;;5021627;28;20207;-70
2023/07/12 04:05:41;;;;;;;9.52;3.78;;;;;;;;;;5018648;28;20701;-70
2023/07/12 04:08:07;;;;;;;8.55;3.60;;;;;;;;;;5023258;28;20178;-69
2023/07/12 04:10:34;;;;;;;11.32;4.53;;;;;;;;;;5011687;28;20305;-70
2023/07/12 04:12:59;;;;;;;9.90;4.38;;;;;;;;;;5019456;28;20209;-70
2023/07/12 04:15:25;;;;;;;10.75;4.28;;;;;;;;;;5019019;28;20289;-69
2023/07/12 04:17:51;;;;;;;11.00;4.43;;;;;;;;;;5026917;28;20212;-69
2023/07/12 04:20:17;;;;;;;7.32;3.88;;;;;;;;;;5025259;28;20226;-70
2023/07/12 04:22:42;;;;;;;10.82;3.88;;;;;;;;;;5023143;28;20198;-69
2023/07/12 04:25:09;;;;;;;8.82;4.78;;;;;;;;;;5025031;28;20194;-69
2023/07/12 04:27:38;;;;;;;15.10;4.82;;;;;;;;;;5027610;28;20186;-68
2023/07/12 04:30:05;;;;;;;11.43;5.00;;;;;;;;;;5026874;28;20193;-68
2023/07/12 04:32:31;;;;;;;9.98;5.55;;;;;;;;;;5027030;28;20188;-69
2023/07/12 04:34:56;;;;;;;8.63;4.53;;;;;;;;;;5020417;28;20202;-69
2023/07/12 04:37:22;;;;;;;9.77;4.10;;;;;;;;;;5022153;28;20509;-69
2023/07/12 04:39:47;;;;;;;10.75;4.63;;;;;;;;;;5015995;28;20610;-69
2023/07/12 04:42:13;;;;;;;10.73;4.15;;;;;;;;;;5025102;28;20283;-68
2023/07/12 04:44:38;;;;;;;8.30;3.88;;;;;;;;;;5013067;28;20737;-68
2023/07/12 04:47:05;;;;;;;7.43;3.50;;;;;;;;;;5015576;28;20198;-69
2023/07/12 04:49:31;;;;;;;7.78;3.72;;;;;;;;;;5019125;28;20202;-69
2023/07/12 04:51:57;;;;;;;9.15;3.30;;;;;;;;;;5022244;28;20198;-67
2023/07/12 04:54:22;;;;;;;8.80;3.42;;;;;;;;;;5022744;28;20209;-68
2023/07/12 04:56:48;;;;;;;5.70;2.85;;;;;;;;;;5019446;28;20697;-68
2023/07/12 04:59:15;;;;;;;7.93;3.30;;;;;;;;;;5019593;28;20458;-69
2023/07/12 05:01:40;;;;;;;5.22;2.70;;;;;;;;;;5022959;28;20232;-69
2023/07/12 05:04:06;;;;;;;7.25;3.28;;;;;;;;;;5025179;28;20304;-68
2023/07/12 05:06:32;;;;;;;6.45;3.25;;;;;;;;;;5023553;28;20225;-68
2023/07/12 05:08:57;;;;;;;10.27;4.00;;;;;;;;;;5020652;28;20271;-68
2023/07/12 05:11:23;;;;;;;8.30;3.70;;;;;;;;;;5019959;28;20185;-69
2023/07/12 05:13:48;;;;;;;13.13;3.60;;;;;;;;;;5027247;28;20197;-69
2023/07/12 05:16:13;;;;;;;6.63;3.78;;;;;;;;;;5026046;28;20277;-68
2023/07/12 05:18:39;;;;;;;8.77;3.65;;;;;;;;;;5025573;28;20194;-69
2023/07/12 05:21:04;;;;;;;8.50;4.03;;;;;;;;;;5020866;28;20186;-68
2023/07/12 05:23:30;;;;;;;8.05;3.63;;;;;;;;;;5020168;28;20210;-69
2023/07/12 05:25:56;;;;;;;7.78;3.60;;;;;;;;;;5022181;28;20329;-69
2023/07/12 05:28:22;;;;;;;8.57;4.43;;;;;;;;;;5019537;28;20182;-69
2023/07/12 05:30:48;;;;;;;8.20;4.28;;;;;;;;;;5016783;28;20333;-68
2023/07/12 05:33:14;;;;;;;8.00;4.00;;;;;;;;;;5023950;28;20261;-69
2023/07/12 05:35:40;;;;;;;9.73;4.70;;;;;;;;;;5025396;28;20544;-70
2023/07/12 05:38:05;;;;;;;9.32;4.25;;;;;;;;;;5011241;28;20206;-68
2023/07/12 05:40:31;;;;;;;8.60;4.57;;;;;;;;;;5014145;28;20512;-67
2023/07/12 05:42:56;;;;;;;11.32;4.88;;;;;;;;;;5027219;28;20226;-68
2023/07/12 05:45:23;;;;;;;9.98;5.30;;;;;;;;;;5025544;28;20252;-69
2023/07/12 05:47:49;;;;;;;11.65;4.88;;;;;;;;;;5025171;28;20183;-68
2023/07/12 05:50:18;;;;;;;9.05;4.97;;;;;;;;;;5021686;28;20198;-68
2023/07/12 05:52:43;;;;;;;10.63;5.05;;;;;;;;;;5025629;28;20182;-68
2023/07/12 05:55:11;;;;;;;11.05;5.40;;;;;;;;;;5025999;28;20383;-68
2023/07/12 05:57:36;;;;;;;11.05;5.55;;;;;;;;;;5023163;28;20245;-69
2023/07/12 06:00:03;;;;;;;8.18;5.65;;;;;;;;;;5019117;28;20552;-69
2023/07/12 06:02:29;;;;;;;15.68;6.15;;;;;;;;;;5023406;28;20242;-68
2023/07/12 06:04:54;;;;;;;11.23;6.00;;;;;;;;;;5023946;28;20616;-71
2023/07/12 06:07:20;;;;;;;11.75;5.90;;;;;;;;;;5020467;28;20186;-70
2023/07/12 06:09:45;;;;;;;11.55;6.57;;;;;;;;;;5027761;28;20222;-68
2023/07/12 06:12:11;;;;;;;10.20;6.78;;;;;;;;;;5030021;28;20602;-68
2023/07/12 06:14:36;;;;;;;12.40;7.28;;;;;;;;;;5025096;28;20650;-69
2023/07/12 06:17:03;;;;;;;11.15;7.35;;;;;;;;;;5028848;28;20658;-68
2023/07/12 06:19:29;;;;;;;13.00;7.55;;;;;;;;;;5020149;28;20217;-68
2023/07/12 06:21:54;;;;;;;16.33;9.13;;;;;;;;;;5020914;28;20225;-67
2023/07/12 06:24:19;;;;;;;15.05;9.05;;;;;;;;;;5027478;28;20182;-70
2023/07/12 06:26:45;;;;;;;12.60;8.35;;;;;;;;;;5020797;28;20198;-67
2023/07/12 06:29:10;;;;;;;13.10;8.60;;;;;;;;;;5026135;28;20194;-67
2023/07/12 06:31:36;;;;;;;16.10;9.50;;;;;;;;;;5029471;28;20190;-69
2023/07/12 06:34:05;;;;;;;18.02;10.45;;;;;;;;;;5023833;28;20559;-68
2023/07/12 06:36:32;;;;;;;15.52;9.98;;;;;;;;;;5027430;28;20447;-69
2023/07/12 06:38:57;;;;;;;21.80;10.43;;;;;;;;;;5024939;28;20598;-68
2023/07/12 06:41:23;;;;;;;15.13;10.10;;;;;;;;;;5027529;28;20221;-68
2023/07/12 06:43:49;;;;;;;14.02;9.10;;;;;;;;;;5019847;28;20214;-68
2023/07/12 06:46:14;;;;;;;15.85;9.52;;;;;;;;;;5019958;28;20190;-69
2023/07/12 06:48:40;;;;;;;15.98;9.60;;;;;;;;;;5025703;28;20227;-69
2023/07/12 06:51:05;;;;;;;16.35;9.88;;;;;;;;;;5020291;28;20194;-68
2023/07/12 06:53:30;;;;;;;19.38;10.32;;;;;;;;;;5025841;28;20687;-68
2023/07/12 06:55:56;;;;;;;17.08;10.05;;;;;;;;;;5025804;28;20280;-69
2023/07/12 06:58:21;;;;;;;19.42;9.00;;;;;;;;;;5027357;28;20194;-68
2023/07/12 07:00:47;;;;;;;14.93;8.70;;;;;;;;;;5024732;28;20216;-68
2023/07/12 07:03:14;;;;;;;12.95;7.80;;;;;;;;;;5027947;28;20662;-69
2023/07/12 07:05:41;;;;;;;17.15;7.72;;;;;;;;;;5021970;28;20197;-70
2023/07/12 07:08:07;;;;;;;14.00;8.23;;;;;;;;;;5022766;28;20676;-68
2023/07/12 07:10:34;;;;;;;13.63;7.80;;;;;;;;;;5019365;28;20446;-70
2023/07/12 07:13:03;;;;;;;16.25;8.80;;;;;;;;;;5021317;28;20198;-68
2023/07/12 07:15:28;;;;;;;14.45;7.88;;;;;;;;;;5017735;28;20220;-69
2023/07/12 07:17:54;;;;;;;13.38;7.93;;;;;;;;;;5026845;28;20267;-69
2023/07/12 07:20:22;;;;;;;13.55;8.18;;;;;;;;;;5021478;28;20253;-69
2023/07/12 07:22:47;;;;;;;14.93;8.80;;;;;;;;;;5024241;28;20435;-70
2023/07/12 07:25:12;;;;;;;14.05;7.78;;;;;;;;;;5020064;28;20200;-69
2023/07/12 07:27:38;;;;;;;16.55;8.18;;;;;;;;;;5018811;28;20199;-69
2023/07/12 07:30:04;;;;;;;14.23;8.18;;;;;;;;;;5022633;28;20221;-69
2023/07/12 07:32:29;;;;;;;12.80;7.28;;;;;;;;;;5023576;28;20204;-68
2023/07/12 07:34:55;;;;;;;14.27;7.90;;;;;;;;;;5023928;28;20717;-67
2023/07/12 07:37:20;;;;;;;16.67;7.80;;;;;;;;;;5019704;28;20191;-66
2023/07/12 07:39:45;;;;;;;13.77;7.20;;;;;;;;;;5026477;28;20250;-68
2023/07/12 07:42:11;;;;;;;9.57;6.68;;;;;;;;;;5023799;28;20229;-69
2023/07/12 07:44:36;;;;;;;13.15;6.38;;;;;;;;;;5023378;28;20190;-67
2023/07/12 07:47:02;;;;;;;13.68;6.72;;;;;;;;;;5029107;28;20757;-68
2023/07/12 07:49:27;;;;;;;12.73;6.80;;;;;;;;;;5027505;28;20248;-68
2023/07/12 07:51:54;;;;;;;12.60;7.38;;;;;;;;;;5027459;28;20182;-68
2023/07/12 07:54:19;;;;;;;18.95;6.95;;;;;;;;;;5028647;28;20213;-69
2023/07/12 07:56:45;;;;;;;13.20;6.25;;;;;;;;;;5021567;28;20709;-69
2023/07/12 07:59:12;;;;;;;17.50;6.03;;;;;;;;;;5021563;28;20187;-71
2023/07/12 08:01:37;;;;;;;15.68;5.63;;;;;;;;;;5028566;28;20292;-69
2023/07/12 08:04:04;;;;;;;16.13;6.35;;;;;;;;;;5022686;28;20290;-69
2023/07/12 08:06:29;;;;;;;12.85;5.95;;;;;;;;;;5019497;28;20194;-69
2023/07/12 08:08:54;;;;;;;10.80;5.63;;;;;;;;;;5025903;28;20277;-68
2023/07/12 08:11:20;;;;;;;10.98;5.47;;;;;;;;;;5018842;28;20616;-69
2023/07/12 08:13:45;;;;;;;17.27;5.85;;;;;;;;;;5026497;28;20222;-70
2023/07/12 08:16:10;;;;;;;12.38;5.40;;;;;;;;;;5023910;28;20198;-66
2023/07/12 08:18:38;;;;;;;12.15;4.65;;;;;;;;;;5028825;28;20186;-69
2023/07/12 08:21:03;;;;;;;15.23;5.03;;;;;;;;;;5026695;28;20190;-68
2023/07/12 08:23:29;;;;;;;8.68;4.03;;;;;;;;;;5026868;28;20286;-66
2023/07/12 08:25:55;;;;;;;10.52;4.57;;;;;;;;;;5016884;28;20198;-67
2023/07/12 08:28:21;;;;;;;11.75;4.30;;;;;;;;;;5028056;28;20182;-70
2023/07/12 08:30:46;;;;;;;9.85;4.05;;;;;;;;;;5025577;28;20190;-68
2023/07/12 08:33:13;;;;;;;10.80;4.25;;;;;;;;;;5026465;28;20193;-70
2023/07/12 08:35:38;;;;;;;11.63;4.70;;;;;;;;;;5026896;28;20268;-71
2023/07/12 08:38:03;;;;;;;13.77;4.25;;;;;;;;;;5026681;28;20193;-67
2023/07/12 08:40:29;;;;;;;10.45;4.60;;;;;;;;;;5015601;28;20230;-70
2023/07/12 08:42:54;;;;;;;11.15;4.20;;;;;;;;;;5025061;28;20210;-70
2023/07/12 08:45:28;;;;;;;11.73;4.28;;;;;;;;;;5026920;28;20203;-68
2023/07/12 08:48:03;;;;;;;9.80;3.90;;;;;;;;;;5017199;28;20284;-69
2023/07/12 08:50:44;;;;;;;11.52;3.70;;;;;;;;;;5018626;28;20259;-67
2023/07/12 08:53:16;;;;;;;15.75;3.78;;;;;;;;;;5018614;28;20212;-68
2023/07/12 08:55:42;;;;;;;8.85;3.90;;;;;;;;;;5016532;28;20301;-68
2023/07/12 08:58:33;;;;;;;11.07;3.75;;;;;;;;;;5028449;28;20198;-68
2023/07/12 09:01:05;;;;;;;10.55;4.82;;;;;;;;;;5012424;28;20222;-67
2023/07/12 09:03:32;;;;;;;8.77;4.10;;;;;;;;;;5026915;28;20264;-67
2023/07/12 09:05:58;;;;;;;12.43;4.57;;;;;;;;;;5020427;28;20280;-67
2023/07/12 09:08:55;;;;;;;12.02;4.60;;;;;;;;;;5027719;28;20705;-67
2023/07/12 09:11:28;;;;;;;11.40;5.22;;;;;;;;;;5025029;28;20605;-67
2023/07/12 09:13:56;;;;;;;10.82;4.20;;;;;;;;;;5022418;28;20186;-67
2023/07/12 09:16:29;;;;;;;13.95;4.90;;;;;;;;;;5015767;28;20289;-66
2023/07/12 09:18:57;;;;;;;16.70;5.03;;;;;;;;;;5026075;28;20206;-67
2023/07/12 09:21:26;;;;;;;12.25;4.60;;;;;;;;;;5026713;28;20182;-68
2023/07/12 09:23:54;;;;;;;11.77;4.22;;;;;;;;;;5024802;28;20606;-67
2023/07/12 09:26:28;;;;;;;11.48;4.15;;;;;;;;;;5026057;28;20256;-69
2023/07/12 09:28:57;;;;;;;9.13;3.72;;;;;;;;;;5027823;28;20511;-67
2023/07/12 09:31:27;;;;;;;12.13;3.92;;;;;;;;;;5023611;28;20524;-66
2023/07/12 09:33:58;;;;;;;10.13;3.90;;;;;;;;;;5026012;28;20186;-69
2023/07/12 09:36:24;;;;;;;11.07;4.40;;;;;;;;;;5026974;28;20555;-67
2023/07/12 09:38:49;;;;;;;9.88;4.00;;;;;;;;;;5028773;28;20182;-69
2023/07/12 09:41:22;;;;;;;8.07;4.03;;;;;;;;;;5007891;28;20320;-65
2023/07/12 09:43:59;;;;;;;10.40;3.53;;;;;;;;;;5028837;28;20233;-68
2023/07/12 09:46:40;;;;;;;10.43;3.88;;;;;;;;;;5018989;28;20202;-67
2023/07/12 09:49:19;;;;;;;8.38;3.58;;;;;;;;;;5026370;28;20277;-67
2023/07/12 09:52:17;;;;;;;9.15;3.53;;;;;;;;;;5021283;28;20316;-68
2023/07/12 09:55:12;;;;;;;8.80;3.50;;;;;;;;;;5029404;28;20676;-69
2023/07/12 09:58:05;;;;;;;13.18;3.38;;;;;;;;;;5025993;28;20183;-66
2023/07/12 10:01:05;;;;;;;11.63;2.88;;;;;;;;;;5026642;28;20210;-68
2023/07/12 10:03:55;;;;;;;11.68;3.53;;;;;;;;;;5028011;28;20344;-69
2023/07/12 10:06:32;;;;;;;8.60;3.33;;;;;;;;;;5025156;28;20198;-67
2023/07/12 10:09:20;;;;;;;10.88;3.00;;;;;;;;;;5027707;28;20186;-69
2023/07/12 10:12:00;;;;;;;12.90;4.40;;;;;;;;;;5022368;28;20592;-68
2023/07/12 10:14:34;;;;;;;13.65;4.13;;;;;;;;;;5024431;28;20569;-68
2023/07/12 10:17:01;;;;;;;9.02;4.10;;;;;;;;;;5025931;28;20196;-68
2023/07/12 10:19:34;;;;;;;7.85;3.38;;;;;;;;;;5029398;28;20193;-68
2023/07/12 10:22:02;;;;;;;11.63;3.88;;;;;;;;;;5026176;28;20198;-69
2023/07/12 10:24:40;;;;;;;12.63;3.58;;;;;;;;;;5026866;28;20213;-67
2023/07/12 10:27:18;;;;;;;11.98;4.15;;;;;;;;;;5028735;28;20252;-66
2023/07/12 10:29:57;;;;;;;9.68;4.38;;;;;;;;;;5019212;28;20654;-68
2023/07/12 10:32:35;;;;;;;8.38;3.20;;;;;;;;;;5021166;28;20543;-66
2023/07/12 10:35:18;;;;;;;10.57;4.22;;;;;;;;;;5017069;28;20540;-66
2023/07/12 10:37:52;;;;;;;15.10;3.85;;;;;;;;;;5027520;28;20186;-69
2023/07/12 10:40:23;;;;;;;7.40;2.88;;;;;;;;;;5016396;28;20241;-67
2023/07/12 10:42:57;;;;;;;3.75;1.00;;;;;;;;;;5023213;28;20320;-69
2023/07/12 10:45:41;;;;;;;3.65;1.17;;;;;;;;;;5024415;28;20669;-66
2023/07/12 10:48:09;;;;;;;4.28;1.27;;;;;;;;;;5017692;28;20202;-69
2023/07/12 10:50:47;;;;;;;4.38;1.30;;;;;;;;;;5023322;28;20199;-69
2023/07/12 10:53:23;;;;;;;4.70;1.40;;;;;;;;;;5016836;28;20559;-68
2023/07/12 10:55:54;;;;;;;5.03;1.63;;;;;;;;;;5021401;28;20195;-69
2023/07/12 10:58:19;;;;;;;6.40;1.63;;;;;;;;;;5028397;28;20273;-68
2023/07/12 11:01:11;;;;;;;3.90;1.10;;;;;;;;;;5021401;28;20293;-69
2023/07/12 11:03:45;;;;;;;5.68;1.88;;;;;;;;;;5018958;28;20313;-69
2023/07/12 11:06:25;;;;;;;3.95;1.40;;;;;;;;;;5029114;28;20190;-69
2023/07/12 11:09:00;;;;;;;5.72;2.10;;;;;;;;;;5029442;28;20232;-69
2023/07/12 11:11:49;;;;;;;6.78;2.15;;;;;;;;;;5028181;28;20194;-69
2023/07/12 11:14:43;;;;;;;6.82;2.40;;;;;;;;;;5023241;28;20198;-69
2023/07/12 11:17:11;;;;;;;8.93;2.38;;;;;;;;;;5028036;28;20256;-67
2023/07/12 11:19:39;;;;;;;11.38;3.13;;;;;;;;;;5028888;28;20193;-68
2023/07/12 11:22:14;;;;;;;15.27;4.10;;;;;;;;;;5026159;28;20201;-72
2023/07/12 11:25:01;;;;;;;12.38;4.50;;;;;;;;;;5016084;28;20193;-72
2023/07/12 11:27:54;;;;;;;14.45;6.53;;;;;;;;;;5028869;28;20289;-77
2023/07/12 11:30:39;;;;;;;15.93;6.20;;;;;;;;;;5021671;28;20332;-77
2023/07/12 11:33:15;;;;;;;15.35;5.50;;;;;;;;;;5029681;28;20218;-78
2023/07/12 11:35:47;;;;;;;10.43;4.38;;;;;;;;;;5029293;28;20575;-77
2023/07/12 11:38:30;;;;;;;7.97;3.75;;;;;;;;;;5030175;28;20207;-77
2023/07/12 11:40:58;;;;;;;10.68;4.30;;;;;;;;;;5028771;28;20643;-76
2023/07/12 11:43:28;;;;;;;7.05;4.40;;;;;;;;;;5028549;28;20301;-74
2023/07/12 11:45:56;;;;;;;8.75;4.80;;;;;;;;;;5027311;28;20194;-77
2023/07/12 11:48:23;;;;;;;11.82;4.85;;;;;;;;;;5007662;28;20192;-74
2023/07/12 11:50:53;;;;;;;8.38;4.47;;;;;;;;;;5026314;28;20672;-74
2023/07/12 11:53:19;;;;;;;7.72;4.45;;;;;;;;;;4329805;28;10021441;-73
2023/07/12 11:55:47;;;;;;;10.75;4.60;;;;;;;;;;5015402;28;20611;-72
2023/07/12 11:58:22;;;;;;;10.13;4.20;;;;;;;;;;5025925;28;20516;-70
2023/07/12 12:00:49;;;;;;;6.55;4.28;;;;;;;;;;5018151;28;20210;-71
2023/07/12 12:03:15;;;;;;;7.13;3.85;;;;;;;;;;5015485;28;20221;-73
2023/07/12 12:05:43;;;;;;;9.75;4.55;;;;;;;;;;5023264;28;20194;-73
2023/07/12 12:08:17;;;;;;;7.22;4.10;;;;;;;;;;5020687;28;20301;-72
2023/07/12 12:10:45;;;;;;;7.30;3.58;;;;;;;;;;5015968;28;21090;-74
2023/07/12 12:13:19;;;;;;;10.02;3.85;;;;;;;;;;5023040;28;20217;-71
2023/07/12 12:15:51;;;;;;;10.70;4.30;;;;;;;;;;5020931;28;20224;-71
2023/07/12 12:18:22;;;;;;;5.35;3.58;;;;;;;;;;5012052;28;20190;-72
2023/07/12 12:20:59;;;;;;;8.25;3.72;;;;;;;;;;5020987;28;20795;-72
2023/07/12 12:23:39;;;;;;;9.20;3.50;;;;;;;;;;5021746;28;20765;-72
2023/07/12 12:26:19;;;;;;;9.25;4.40;;;;;;;;;;5021814;28;20274;-71
2023/07/12 12:28:51;;;;;;;11.07;4.20;;;;;;;;;;5017832;28;20244;-70
2023/07/12 12:31:21;;;;;;;9.82;3.25;;;;;;;;;;5023274;28;20661;-70
2023/07/12 12:34:12;;;;;;;11.45;4.18;;;;;;;;;;5021964;28;20637;-70
2023/07/12 12:36:38;;;;;;;11.13;4.07;;;;;;;;;;5024122;28;20277;-70
2023/07/12 12:39:12;;;;;;;10.40;4.00;;;;;;;;;;5024346;28;20319;-70
2023/07/12 12:41:43;;;;;;;11.77;4.20;;;;;;;;;;5016321;28;20729;-71
2023/07/12 12:44:16;;;;;;;12.05;4.55;;;;;;;;;;5020929;28;20623;-70
2023/07/12 12:46:43;;;;;;;8.02;4.00;;;;;;;;;;5017638;28;20261;-71
2023/07/12 12:49:30;;;;;;;11.30;4.10;;;;;;;;;;5019479;28;20197;-71
2023/07/12 12:51:58;;;;;;;13.52;4.57;;;;;;;;;;5014668;28;20757;-71
2023/07/12 12:54:24;;;;;;;9.70;4.13;;;;;;;;;;5014747;28;20272;-70
2023/07/12 12:56:51;;;;;;;9.02;3.55;;;;;;;;;;5016934;28;20281;-70
2023/07/12 12:59:18;;;;;;;9.27;3.65;;;;;;;;;;5018230;28;20273;-70
2023/07/12 13:01:45;;;;;;;9.80;4.22;;;;;;;;;;5021785;28;20222;-70
2023/07/12 13:04:12;;;;;;;7.43;3.25;;;;;;;;;;5013284;28;20624;-71
2023/07/12 13:06:38;;;;;;;7.65;3.65;;;;;;;;;;5020748;28;20212;-70
2023/07/12 13:09:25;;;;;;;5.70;2.80;;;;;;;;;;5021629;28;20189;-70
2023/07/12 13:11:51;;;;;;;8.07;2.72;;;;;;;;;;5018404;28;20334;-68
2023/07/12 13:14:16;;;;;;;7.00;2.80;;;;;;;;;;5018437;28;20611;-69
2023/07/12 13:16:42;;;;;;;12.30;2.90;;;;;;;;;;5018009;28;20252;-70
2023/07/12 13:19:12;;;;;;;6.78;2.97;;;;;;;;;;5018109;28;20189;-70
2023/07/12 13:21:37;;;;;;;7.45;3.00;;;;;;;;;;5021596;28;20275;-70
2023/07/12 13:24:03;;;;;;;7.80;2.72;;;;;;;;;;5021357;28;20237;-70
2023/07/12 13:26:28;;;;;;;8.32;2.78;;;;;;;;;;5017670;28;20202;-70
2023/07/12 13:28:53;;;;;;;7.38;2.30;;;;;;;;;;5020685;28;20189;-70
2023/07/12 13:31:20;;;;;;;5.93;2.22;;;;;;;;;;5018496;28;20300;-70
2023/07/12 13:33:46;;;;;;;3.97;2.00;;;;;;;;;;5022322;28;20189;-70
2023/07/12 13:36:27;;;;;;;7.07;2.25;;;;;;;;;;5015513;28;20199;-72
2023/07/12 13:38:57;;;;;;;7.10;2.22;;;;;;;;;;5019628;28;20194;-71
2023/07/12 13:41:22;;;;;;;5.05;1.83;;;;;;;;;;5021156;28;20577;-70
2023/07/12 13:43:48;;;;;;;7.57;2.38;;;;;;;;;;5018880;28;20236;-69
2023/07/12 13:46:15;;;;;;;8.40;2.78;;;;;;;;;;5007964;28;20190;-70
2023/07/12 13:48:42;;;;;;;6.57;2.10;;;;;;;;;;5010023;28;20542;-71
2023/07/12 13:51:22;;;;;;;4.60;2.00;;;;;;;;;;5013173;28;20182;-71
2023/07/12 13:53:49;;;;;;;4.10;1.92;;;;;;;;;;5017531;28;20206;-71
2023/07/12 13:56:15;;;;;;;6.22;2.20;;;;;;;;;;5021702;28;20736;-68
2023/07/12 13:58:40;;;;;;;6.20;2.30;;;;;;;;;;5023200;28;20193;-69
2023/07/12 14:01:07;;;;;;;7.13;2.60;;;;;;;;;;5021767;28;20290;-70
2023/07/12 14:03:32;;;;;;;7.80;2.47;;;;;;;;;;5018504;28;20214;-68
2023/07/12 14:06:00;;;;;;;7.97;2.40;;;;;;;;;;5022362;28;20565;-67
2023/07/12 14:08:25;;;;;;;7.68;2.60;;;;;;;;;;5023408;28;20209;-68
2023/07/12 14:10:51;;;;;;;5.22;2.17;;;;;;;;;;5023020;28;20581;-71
2023/07/12 14:13:21;;;;;;;7.32;2.50;;;;;;;;;;5021192;28;20182;-70
2023/07/12 14:15:46;;;;;;;8.25;2.50;;;;;;;;;;5018860;28;20584;-71
2023/07/12 14:18:12;;;;;;;6.40;2.53;;;;;;;;;;5021782;28;20186;-70
2023/07/12 14:20:38;;;;;;;5.55;2.20;;;;;;;;;;5029618;28;20190;-71
2023/07/12 14:23:11;;;;;;;4.47;2.45;;;;;;;;;;5025867;28;20218;-71
2023/07/12 14:25:37;;;;;;;6.15;2.42;;;;;;;;;;5029452;28;20186;-69
2023/07/12 14:28:04;;;;;;;8.60;1.90;;;;;;;;;;5029676;28;20307;-70
2023/07/12 14:30:30;;;;;;;5.97;2.60;;;;;;;;;;5026398;28;20190;-71
2023/07/12 14:32:55;;;;;;;5.55;2.35;;;;;;;;;;5027824;28;20455;-70
2023/07/12 14:35:26;;;;;;;7.35;2.10;;;;;;;;;;5028957;28;20634;-70
2023/07/12 14:37:52;;;;;;;6.47;2.75;;;;;;;;;;5026283;28;20236;-71
2023/07/12 14:40:19;;;;;;;3.50;1.90;;;;;;;;;;5029398;28;20674;-69
2023/07/12 14:42:45;;;;;;;4.38;1.67;;;;;;;;;;5023267;28;20296;-71
2023/07/12 14:45:18;;;;;;;5.00;2.25;;;;;;;;;;5030255;28;20321;-71
2023/07/12 14:47:43;;;;;;;4.95;1.80;;;;;;;;;;5029788;28;20217;-70